createdAt,value
2022-10-17T00:00:48.287Z,100618.16
2022-10-17T00:03:16.631Z,100575.50
2022-10-17T00:05:48.149Z,100657.25
2022-10-17T00:08:17.764Z,100668.00
2022-10-17T00:10:45.856Z,100669.75
2022-10-17T00:13:13.776Z,100641.31
2022-10-17T00:15:44.961Z,100623.91
2022-10-17T00:18:13.021Z,100683.88
2022-10-17T00:20:40.896Z,100673.44
2022-10-17T00:23:10.337Z,100645.09
2022-10-17T00:25:38.285Z,100683.13
2022-10-17T00:28:06.362Z,100653.84
2022-10-17T00:30:34.417Z,100693.84
2022-10-17T00:33:02.341Z,100694.88
2022-10-17T00:35:30.281Z,100701.03
2022-10-17T00:37:58.320Z,100702.06
2022-10-17T00:40:27.886Z,100704.41
2022-10-17T00:42:55.730Z,100716.25
2022-10-17T00:45:26.779Z,100641.16
2022-10-17T00:47:59.820Z,100679.16
2022-10-17T00:50:29.514Z,100673.94
2022-10-17T00:53:02.632Z,100735.72
2022-10-17T00:55:36.067Z,100694.59
2022-10-17T00:58:06.149Z,100711.50
2022-10-17T01:00:34.100Z,100720.34
2022-10-17T01:03:02.086Z,100719.56
2022-10-17T01:05:30.461Z,100728.38
2022-10-17T01:07:58.484Z,100726.69
2022-10-17T01:10:34.517Z,100731.94
2022-10-17T01:13:13.888Z,100748.59
2022-10-17T01:15:57.689Z,100675.03
2022-10-17T01:18:41.580Z,100753.97
2022-10-17T01:21:31.544Z,100748.41
2022-10-17T01:24:44.406Z,100743.22
2022-10-17T01:27:39.053Z,100780.25
2022-10-17T01:30:28.022Z,100772.41
2022-10-17T01:33:00.273Z,100771.63
2022-10-17T01:35:32.901Z,100804.09
2022-10-17T01:38:09.458Z,100791.16
2022-10-17T01:40:41.090Z,100794.69
2022-10-17T01:43:12.770Z,100792.09
2022-10-17T01:45:46.688Z,100802.66
2022-10-17T01:48:18.708Z,100780.63
2022-10-17T01:50:51.965Z,100810.66
2022-10-17T01:53:25.660Z,100813.31
2022-10-17T01:58:30.171Z,100747.75
2022-10-17T02:01:01.930Z,100729.63
2022-10-17T02:03:34.738Z,100818.72
2022-10-17T02:06:03.114Z,100852.88
2022-10-17T02:08:42.565Z,100810.41
2022-10-17T02:11:15.190Z,100752.41
2022-10-17T02:14:06.342Z,100872.97
2022-10-17T02:16:39.533Z,100765.72
2022-10-17T02:19:37.024Z,100857.22
2022-10-17T02:22:15.848Z,100870.38
2022-10-17T02:24:50.868Z,100871.28
2022-10-17T02:27:27.873Z,100841.97
2022-10-17T02:30:01.883Z,100886.16
2022-10-17T02:32:36.411Z,100885.28
2022-10-17T02:35:10.384Z,100870.84
2022-10-17T02:37:39.185Z,100879.63
2022-10-17T02:40:09.641Z,100911.47
2022-10-17T02:42:38.795Z,100802.84
2022-10-17T02:45:08.966Z,100855.25
2022-10-17T02:47:40.496Z,100925.50
2022-10-17T02:50:10.469Z,100931.59
2022-10-17T02:52:44.911Z,100935.06
2022-10-17T02:55:18.427Z,100934.13
2022-10-17T02:57:50.905Z,100934.88
2022-10-17T03:00:21.015Z,100913.94
2022-10-17T03:02:50.661Z,100927.66
2022-10-17T03:05:22.673Z,100938.03
2022-10-17T03:07:50.657Z,100950.97
2022-10-17T03:10:18.961Z,100942.97
2022-10-17T03:12:47.242Z,100843.88
2022-10-17T03:15:16.000Z,100942.72
2022-10-17T03:20:17.157Z,100913.84
2022-10-17T03:22:46.366Z,100962.63
2022-10-17T03:25:14.327Z,100960.78
2022-10-17T03:27:42.518Z,100938.97
2022-10-17T03:30:11.358Z,100891.84
2022-10-17T03:32:39.267Z,100981.38
2022-10-17T03:35:10.167Z,100988.31
2022-10-17T03:37:41.863Z,100990.94
2022-10-17T03:40:12.221Z,100980.28
2022-10-17T03:42:40.536Z,101026.50
2022-10-17T03:45:09.173Z,101011.69
2022-10-17T03:47:37.344Z,101015.09
2022-10-17T03:50:05.837Z,101017.63
2022-10-17T03:52:33.674Z,100920.31
2022-10-17T03:55:01.709Z,101032.44
2022-10-17T03:57:31.216Z,100988.56
2022-10-17T03:59:59.225Z,101056.81
2022-10-17T04:02:27.338Z,101050.31
2022-10-17T04:04:55.161Z,101067.19
2022-10-17T04:07:23.025Z,101068.75
2022-10-17T04:09:51.052Z,101072.94
2022-10-17T04:12:19.087Z,101040.56
2022-10-17T04:14:48.520Z,101092.19
2022-10-17T04:17:16.526Z,101086.09
2022-10-17T04:19:44.345Z,101090.56
2022-10-17T04:22:12.197Z,101102.72
2022-10-17T04:24:40.300Z,101079.44
2022-10-17T04:27:08.172Z,101111.19
2022-10-17T04:29:36.016Z,101089.81
2022-10-17T04:32:05.940Z,101116.59
2022-10-17T04:34:33.882Z,101130.53
2022-10-17T04:37:01.685Z,101131.31
2022-10-17T04:39:30.617Z,101131.25
2022-10-17T04:41:58.455Z,101140.78
2022-10-17T04:44:26.422Z,101143.50
2022-10-17T04:46:54.792Z,101146.00
2022-10-17T04:49:24.004Z,101120.50
2022-10-17T04:51:51.961Z,101171.16
2022-10-17T04:54:20.706Z,101156.50
2022-10-17T04:56:48.767Z,101194.50
2022-10-17T04:59:16.610Z,101154.69
2022-10-17T05:01:44.630Z,101205.13
2022-10-17T05:04:12.486Z,101192.75
2022-10-17T05:06:41.859Z,101059.34
2022-10-17T05:09:09.942Z,101089.72
2022-10-17T05:11:37.770Z,101224.19
2022-10-17T05:14:05.677Z,101215.44
2022-10-17T05:16:33.846Z,101224.06
2022-10-17T05:19:01.687Z,101230.97
2022-10-17T05:21:31.094Z,101139.00
2022-10-17T05:24:00.685Z,101218.53
2022-10-17T05:26:28.524Z,101204.75
2022-10-17T05:28:56.388Z,101219.50
2022-10-17T05:31:24.992Z,101251.69
2022-10-17T05:33:52.872Z,101250.03
2022-10-17T05:36:20.710Z,101265.72
2022-10-17T05:38:50.747Z,101263.16
2022-10-17T05:41:20.862Z,101239.06
2022-10-17T05:43:50.321Z,101243.34
2022-10-17T05:46:18.701Z,101277.97
2022-10-17T05:48:46.578Z,101291.13
2022-10-17T05:51:14.546Z,101109.91
2022-10-17T05:53:43.106Z,101250.91
2022-10-17T05:56:13.340Z,101301.72
2022-10-17T05:58:50.323Z,101301.72
2022-10-17T06:01:19.136Z,101304.41
2022-10-17T06:03:47.759Z,101307.88
2022-10-17T06:06:16.929Z,101304.22
2022-10-17T06:08:45.733Z,101294.16
2022-10-17T06:11:15.029Z,101314.41
2022-10-17T06:13:44.269Z,101324.59
2022-10-17T06:16:12.172Z,101329.88
2022-10-17T06:18:40.425Z,101317.75
2022-10-17T06:21:10.633Z,101324.59
2022-10-17T06:23:38.851Z,101241.56
2022-10-17T06:26:08.285Z,101342.56
2022-10-17T06:28:37.288Z,101353.22
2022-10-17T06:31:08.398Z,101358.56
2022-10-17T06:33:36.423Z,101365.94
2022-10-17T06:36:05.775Z,101357.03
2022-10-17T06:38:35.247Z,101358.69
2022-10-17T06:41:08.996Z,101361.09
2022-10-17T06:43:37.424Z,101391.63
2022-10-17T06:46:05.739Z,101305.19
2022-10-17T06:48:35.270Z,101383.19
2022-10-17T06:51:04.923Z,101393.28
2022-10-17T06:53:35.066Z,101404.94
2022-10-17T06:56:04.910Z,101374.59
2022-10-17T06:58:34.369Z,101401.66
2022-10-17T07:01:03.454Z,101409.25
2022-10-17T07:03:31.839Z,101430.53
2022-10-17T07:06:01.466Z,101428.28
2022-10-17T07:08:29.877Z,101435.31
2022-10-17T07:10:58.349Z,101439.84
2022-10-17T07:13:26.701Z,101426.75
2022-10-17T07:18:26.347Z,101345.38
2022-10-17T07:20:55.087Z,101443.06
2022-10-17T07:23:24.579Z,101403.00
2022-10-17T07:25:52.656Z,101453.72
2022-10-17T07:28:20.761Z,101430.28
2022-10-17T07:30:51.997Z,101457.16
2022-10-17T07:33:22.541Z,101457.66
2022-10-17T07:35:52.592Z,101465.03
2022-10-17T07:38:20.504Z,101464.44
2022-10-17T07:40:55.487Z,101473.84
2022-10-17T07:43:23.768Z,101472.94
2022-10-17T07:45:52.552Z,101476.50
2022-10-17T07:48:21.227Z,101484.69
2022-10-17T07:50:49.460Z,101479.25
2022-10-17T07:53:17.813Z,101498.59
2022-10-17T07:55:46.817Z,101425.72
2022-10-17T07:58:16.749Z,101510.41
2022-10-17T08:00:48.608Z,101485.06
2022-10-17T08:03:16.665Z,101523.38
2022-10-17T08:05:44.541Z,101543.97
2022-10-17T08:08:12.698Z,101502.03
2022-10-17T08:10:40.646Z,101540.50
2022-10-17T08:13:08.608Z,101548.16
2022-10-17T08:15:38.955Z,101539.34
2022-10-17T08:18:06.812Z,101547.34
2022-10-17T08:20:34.721Z,101543.88
2022-10-17T08:23:02.713Z,101543.72
2022-10-17T08:25:30.813Z,101538.94
2022-10-17T08:27:59.472Z,101516.06
2022-10-17T08:30:27.449Z,101543.56
2022-10-17T08:32:56.677Z,101556.53
2022-10-17T08:35:24.578Z,101570.56
2022-10-17T08:37:52.705Z,101548.44
2022-10-17T08:40:23.697Z,101572.75
2022-10-17T08:43:08.074Z,101568.63
2022-10-17T08:45:42.927Z,101567.09
2022-10-17T08:48:16.532Z,101579.84
2022-10-17T08:50:47.732Z,101595.19
2022-10-17T08:53:21.578Z,101582.34
2022-10-17T08:55:51.392Z,101582.97
2022-10-17T08:58:24.288Z,101598.69
2022-10-17T09:01:12.725Z,101586.38
2022-10-17T09:03:57.853Z,101605.09
2022-10-17T09:06:30.089Z,101605.75
2022-10-17T09:09:10.849Z,101617.09
2022-10-17T09:11:53.460Z,101614.66
2022-10-17T09:14:38.475Z,101605.03
2022-10-17T09:17:18.553Z,101619.09
2022-10-17T09:19:56.750Z,101620.22
2022-10-17T09:22:29.352Z,101625.19
2022-10-17T09:25:00.477Z,101594.84
2022-10-17T09:27:35.635Z,101611.44
2022-10-17T09:30:43.547Z,101625.53
2022-10-17T09:33:23.407Z,101606.72
2022-10-17T09:36:07.755Z,101640.88
2022-10-17T09:38:42.388Z,101632.13
2022-10-17T09:41:44.379Z,101625.00
2022-10-17T09:44:15.887Z,101656.06
2022-10-17T09:46:51.021Z,101642.69
2022-10-17T09:49:24.617Z,101652.63
2022-10-17T09:51:54.351Z,101658.50
2022-10-17T09:54:27.950Z,101660.34
2022-10-17T09:57:01.340Z,101643.72
2022-10-17T09:59:34.099Z,101651.81
2022-10-17T10:02:30.289Z,101653.72
2022-10-17T10:05:05.082Z,101662.78
2022-10-17T10:07:38.506Z,101676.88
2022-10-17T10:10:09.687Z,101675.19
2022-10-17T10:12:40.189Z,101674.78
2022-10-17T10:15:34.676Z,101671.22
2022-10-17T10:18:05.289Z,101676.72
2022-10-17T10:20:36.267Z,101676.66
2022-10-17T10:23:24.602Z,101682.84
2022-10-17T10:25:57.823Z,101673.50
2022-10-17T10:28:32.409Z,101676.94
2022-10-17T10:31:04.657Z,101678.25
2022-10-17T10:33:37.517Z,101684.78
2022-10-17T10:36:09.486Z,101680.81
2022-10-17T10:38:43.478Z,101666.50
2022-10-17T10:41:12.641Z,101693.06
2022-10-17T10:43:44.877Z,101655.91
2022-10-17T10:46:19.603Z,101664.56
2022-10-17T10:48:56.605Z,101661.03
2022-10-17T10:51:30.418Z,101682.06
2022-10-17T10:54:05.150Z,101686.78
2022-10-17T10:56:38.287Z,101683.78
2022-10-17T10:59:19.362Z,101690.47
2022-10-17T11:01:53.608Z,101684.88
2022-10-17T11:04:29.484Z,101675.63
2022-10-17T11:07:04.174Z,101685.50
2022-10-17T11:09:46.043Z,101677.16
2022-10-17T11:12:19.641Z,101624.63
2022-10-17T11:14:54.514Z,101703.78
2022-10-17T11:17:32.080Z,101675.97
2022-10-17T11:20:08.701Z,101691.72
2022-10-17T11:22:41.176Z,101661.13
2022-10-17T11:25:20.849Z,101694.31
2022-10-17T11:27:48.752Z,101691.03
2022-10-17T11:30:17.818Z,101647.75
2022-10-17T11:32:49.900Z,101717.44
2022-10-17T11:35:22.049Z,101690.13
2022-10-17T11:37:59.516Z,101655.19
2022-10-17T11:40:32.389Z,101701.59
2022-10-17T11:43:03.300Z,101660.25
2022-10-17T11:45:38.070Z,101661.50
2022-10-17T11:48:12.056Z,101704.72
2022-10-17T11:53:48.233Z,101695.75
2022-10-17T11:56:23.762Z,101682.72
2022-10-17T11:58:57.068Z,101699.75
2022-10-17T12:01:33.448Z,101640.53
2022-10-17T12:04:21.968Z,101636.00
2022-10-17T12:07:10.951Z,101614.72
2022-10-17T12:09:46.342Z,101696.69
2022-10-17T12:12:27.073Z,101696.22
2022-10-17T12:14:55.881Z,101688.50
2022-10-17T12:17:34.871Z,101665.97
2022-10-17T12:20:31.728Z,101691.13
2022-10-17T12:23:05.358Z,101684.72
2022-10-17T12:25:35.518Z,101696.13
2022-10-17T12:28:16.235Z,101695.38
2022-10-17T12:30:53.814Z,101682.94
2022-10-17T12:33:23.855Z,101681.97
2022-10-17T12:36:13.058Z,101685.41
2022-10-17T12:38:41.041Z,101647.22
2022-10-17T12:41:08.906Z,101677.59
2022-10-17T12:46:55.734Z,101674.75
2022-10-17T12:49:37.244Z,101662.97
2022-10-17T12:52:24.055Z,101668.59
2022-10-17T12:55:18.066Z,101658.75
2022-10-17T12:57:52.815Z,101643.38
2022-10-17T13:00:27.094Z,101675.47
2022-10-17T13:02:57.141Z,101688.72
2022-10-17T13:05:31.814Z,101675.59
2022-10-17T13:08:03.566Z,101683.63
2022-10-17T13:10:34.812Z,101687.00
2022-10-17T13:13:12.050Z,101679.66
2022-10-17T13:15:41.708Z,101681.16
2022-10-17T13:18:21.191Z,101682.72
2022-10-17T13:21:03.446Z,101694.72
2022-10-17T13:23:35.545Z,101690.91
2022-10-17T13:26:08.770Z,101697.78
2022-10-17T13:28:39.325Z,101691.44
2022-10-17T13:31:23.812Z,101686.84
2022-10-17T13:33:58.052Z,101690.13
2022-10-17T13:36:27.304Z,101692.50
2022-10-17T13:38:55.377Z,101697.38
2022-10-17T13:41:36.862Z,101707.66
2022-10-17T13:44:14.903Z,101693.34
2022-10-17T13:46:44.862Z,101689.66
2022-10-17T13:49:20.064Z,101688.66
2022-10-17T13:51:51.108Z,101694.72
2022-10-17T13:54:20.481Z,101687.47
2022-10-17T13:56:48.413Z,101690.78
2022-10-17T13:59:23.878Z,101674.63
2022-10-17T14:01:55.192Z,101689.84
2022-10-17T14:04:23.134Z,101684.53
2022-10-17T14:06:52.305Z,101676.44
2022-10-17T14:09:24.653Z,101665.00
2022-10-17T14:12:02.313Z,101668.53
2022-10-17T14:14:41.637Z,101710.63
2022-10-17T14:17:25.746Z,101718.41
2022-10-17T14:20:16.080Z,101699.69
2022-10-17T14:22:47.292Z,101727.03
2022-10-17T14:25:30.729Z,101722.59
2022-10-17T14:28:08.121Z,101707.50
2022-10-17T14:30:55.632Z,101702.66
2022-10-17T14:33:29.745Z,101708.09
2022-10-17T14:35:59.519Z,101697.28
2022-10-17T14:38:28.642Z,101674.03
2022-10-17T14:41:22.057Z,101702.28
2022-10-17T14:43:54.682Z,101688.03
2022-10-17T14:46:22.685Z,101711.63
2022-10-17T14:48:56.379Z,101714.13
2022-10-17T14:51:24.344Z,101698.31
2022-10-17T14:54:07.065Z,101707.81
2022-10-17T14:56:41.821Z,101698.13
2022-10-17T14:59:13.777Z,101677.84
2022-10-17T15:01:43.784Z,101679.63
2022-10-17T15:04:13.071Z,101669.13
2022-10-17T15:06:41.508Z,101644.16
2022-10-17T15:09:10.694Z,101669.88
2022-10-17T15:11:39.036Z,101660.72
2022-10-17T15:14:06.870Z,101662.72
2022-10-17T15:16:37.228Z,101647.56
2022-10-17T15:19:05.221Z,101675.91
2022-10-17T15:21:41.885Z,101675.81
2022-10-17T15:24:12.813Z,101669.66
2022-10-17T15:26:40.679Z,101650.09
2022-10-17T15:29:08.640Z,101668.75
2022-10-17T15:31:36.851Z,101577.09
2022-10-17T15:34:04.716Z,101660.47
2022-10-17T15:36:38.170Z,101654.28
2022-10-17T15:39:06.189Z,101670.38
2022-10-17T15:41:34.666Z,101677.25
2022-10-17T15:44:02.702Z,101647.84
2022-10-17T15:46:33.629Z,101657.69
2022-10-17T15:49:05.888Z,101636.22
2022-10-17T15:51:33.803Z,101656.72
2022-10-17T15:54:03.196Z,101631.84
2022-10-17T15:56:36.151Z,101641.88
2022-10-17T15:59:05.610Z,101628.34
2022-10-17T16:01:34.652Z,101640.56
2022-10-17T16:04:02.770Z,101653.09
2022-10-17T16:06:30.674Z,101667.91
2022-10-17T16:08:58.783Z,101602.78
2022-10-17T16:11:33.280Z,101659.00
2022-10-17T16:14:03.309Z,101648.41
2022-10-17T16:16:31.805Z,101610.84
2022-10-17T16:18:59.789Z,101614.19
2022-10-17T16:24:00.609Z,101525.06
2022-10-17T16:26:30.672Z,101585.69
2022-10-17T16:29:02.967Z,101641.00
2022-10-17T16:31:33.398Z,101650.00
2022-10-17T16:34:03.028Z,101607.03
2022-10-17T16:36:34.401Z,101625.91
2022-10-17T16:39:02.392Z,101644.66
2022-10-17T16:41:33.310Z,101622.22
2022-10-17T16:44:03.362Z,101606.19
2022-10-17T16:46:32.747Z,101633.06
2022-10-17T16:49:01.245Z,101635.69
2022-10-17T16:51:29.424Z,101620.63
2022-10-17T16:54:00.161Z,101621.56
2022-10-17T16:56:29.871Z,101622.41
2022-10-17T16:58:59.933Z,101616.19
2022-10-17T17:01:29.330Z,101614.41
2022-10-17T17:03:57.547Z,101606.47
2022-10-17T17:06:28.020Z,101559.19
2022-10-17T17:08:56.670Z,101600.22
2022-10-17T17:11:28.440Z,101590.31
2022-10-17T17:13:58.706Z,101592.72
2022-10-17T17:16:28.473Z,101606.91
2022-10-17T17:18:58.447Z,101611.19
2022-10-17T17:21:27.063Z,101603.38
2022-10-17T17:23:57.312Z,101592.66
2022-10-17T17:26:26.361Z,101599.97
2022-10-17T17:28:54.612Z,101567.63
2022-10-17T17:31:26.572Z,101594.69
2022-10-17T17:36:30.974Z,101579.72
2022-10-17T17:39:00.765Z,101550.16
2022-10-17T17:41:29.827Z,101583.22
2022-10-17T17:43:58.140Z,101563.56
2022-10-17T17:46:27.505Z,101538.53
2022-10-17T17:48:56.680Z,101588.19
2022-10-17T17:51:28.349Z,101587.13
2022-10-17T17:53:57.972Z,101576.44
2022-10-17T17:56:27.850Z,101568.28
2022-10-17T17:58:57.329Z,101577.03
2022-10-17T18:01:29.210Z,101572.50
2022-10-17T18:03:59.861Z,101565.19
2022-10-17T18:06:28.653Z,101566.84
2022-10-17T18:08:58.337Z,101570.25
2022-10-17T18:11:27.207Z,101572.69
2022-10-17T18:13:55.912Z,101569.94
2022-10-17T18:16:23.947Z,101575.78
2022-10-17T18:18:53.184Z,101551.47
2022-10-17T18:21:21.358Z,101570.47
2022-10-17T18:23:52.046Z,101569.56
2022-10-17T18:26:20.559Z,101565.22
2022-10-17T18:28:49.585Z,101567.00
2022-10-17T18:31:24.235Z,101560.88
2022-10-17T18:33:54.598Z,101574.06
2022-10-17T18:36:23.651Z,101563.56
2022-10-17T18:38:51.785Z,101557.41
2022-10-17T18:41:21.901Z,101519.06
2022-10-17T18:43:51.491Z,101546.03
2022-10-17T18:46:22.088Z,101500.34
2022-10-17T18:48:51.547Z,101547.72
2022-10-17T18:51:22.853Z,101545.91
2022-10-17T18:53:55.248Z,101544.19
2022-10-17T18:56:29.205Z,101493.44
2022-10-17T18:58:57.979Z,101531.09
2022-10-17T19:01:27.809Z,101516.13
2022-10-17T19:03:57.929Z,101515.78
2022-10-17T19:06:28.887Z,101542.34
2022-10-17T19:08:56.854Z,101527.28
2022-10-17T19:11:26.929Z,101528.13
2022-10-17T19:13:56.843Z,101512.03
2022-10-17T19:16:31.309Z,101524.69
2022-10-17T19:19:11.668Z,101515.97
2022-10-17T19:21:41.386Z,101504.59
2022-10-17T19:24:15.498Z,101445.50
2022-10-17T19:26:44.777Z,101472.47
2022-10-17T19:29:15.061Z,101443.97
2022-10-17T19:31:43.511Z,101484.41
2022-10-17T19:34:12.489Z,101486.06
2022-10-17T19:36:42.112Z,101476.28
2022-10-17T19:39:13.026Z,101458.25
2022-10-17T19:41:41.711Z,101440.38
2022-10-17T19:44:09.717Z,101470.69
2022-10-17T19:46:37.971Z,101463.44
2022-10-17T19:49:06.694Z,101472.00
2022-10-17T19:51:34.837Z,101467.50
2022-10-17T19:54:04.398Z,101461.34
2022-10-17T19:56:37.718Z,101414.88
2022-10-17T19:59:06.169Z,101448.97
2022-10-17T20:01:36.003Z,101403.31
2022-10-17T20:04:03.983Z,101420.56
2022-10-17T20:06:32.057Z,101430.38
2022-10-17T20:08:59.938Z,101429.31
2022-10-17T20:11:30.721Z,101415.84
2022-10-17T20:14:00.243Z,101419.34
2022-10-17T20:16:30.442Z,101427.03
2022-10-17T20:19:02.783Z,101417.38
2022-10-17T20:21:32.475Z,101414.75
2022-10-17T20:24:00.945Z,101411.25
2022-10-17T20:26:39.592Z,101406.84
2022-10-17T20:29:11.197Z,101397.13
2022-10-17T20:31:40.094Z,101393.50
2022-10-17T20:34:08.195Z,101348.78
2022-10-17T20:36:37.565Z,101327.22
2022-10-17T20:39:06.808Z,101391.34
2022-10-17T20:41:36.697Z,101386.03
2022-10-17T20:44:06.913Z,101389.63
2022-10-17T20:46:37.226Z,101321.16
2022-10-17T20:49:06.254Z,101353.31
2022-10-17T20:51:34.617Z,101370.22
2022-10-17T20:54:03.216Z,101373.72
2022-10-17T20:56:33.181Z,101264.69
2022-10-17T20:59:05.635Z,101375.56
2022-10-17T21:01:35.420Z,101368.53
2022-10-17T21:04:27.089Z,101351.94
2022-10-17T21:06:53.641Z,101345.75
2022-10-17T21:09:22.154Z,101337.78
2022-10-17T21:11:54.401Z,101341.22
2022-10-17T21:14:25.095Z,101331.16
2022-10-17T21:16:58.052Z,101342.88
2022-10-17T21:19:28.165Z,101319.78
2022-10-17T21:21:55.968Z,101321.81
2022-10-17T21:24:23.894Z,101325.28
2022-10-17T21:26:55.731Z,101325.28
2022-10-17T21:29:25.360Z,101279.28
2022-10-17T21:31:53.760Z,101307.84
2022-10-17T21:34:25.252Z,101315.56
2022-10-17T21:36:53.573Z,101318.38
2022-10-17T21:39:22.971Z,101312.44
2022-10-17T21:41:51.044Z,101292.06
2022-10-17T21:44:20.642Z,101295.06
2022-10-17T21:46:50.445Z,101206.00
2022-10-17T21:49:21.052Z,101242.47
2022-10-17T21:51:49.953Z,101289.75
2022-10-17T21:54:19.414Z,101266.69
2022-10-17T21:56:47.456Z,101274.06
2022-10-17T21:59:15.405Z,101269.78
2022-10-17T22:01:45.166Z,101265.44
2022-10-17T22:04:16.280Z,101263.72
2022-10-17T22:06:46.940Z,101262.88
2022-10-17T22:09:17.472Z,101258.59
2022-10-17T22:11:46.843Z,101212.97
2022-10-17T22:14:16.577Z,101102.47
2022-10-17T22:16:46.665Z,101245.25
2022-10-17T22:19:18.517Z,101181.81
2022-10-17T22:21:46.539Z,101270.91
2022-10-17T22:24:18.969Z,101253.47
2022-10-17T22:26:47.424Z,101187.34
2022-10-17T22:29:16.216Z,101257.81
2022-10-17T22:31:44.553Z,101237.28
2022-10-17T22:34:14.739Z,101240.25
2022-10-17T22:36:44.510Z,101224.44
2022-10-17T22:39:12.856Z,101172.66
2022-10-17T22:41:40.749Z,101223.53
2022-10-17T22:44:08.705Z,101235.63
2022-10-17T22:46:37.114Z,101217.25
2022-10-17T22:49:05.270Z,101219.81
2022-10-17T22:51:33.181Z,101217.13
2022-10-17T22:54:14.514Z,101191.50
2022-10-17T22:56:43.355Z,101144.88
2022-10-17T22:59:11.317Z,101144.16
2022-10-17T23:01:44.419Z,101168.97
2022-10-17T23:04:12.693Z,101202.13
2022-10-17T23:06:41.475Z,101104.88
2022-10-17T23:09:10.845Z,101201.13
2022-10-17T23:11:39.362Z,101185.31
2022-10-17T23:14:07.161Z,101150.47
2022-10-17T23:16:35.541Z,101178.13
2022-10-17T23:19:05.666Z,101181.69
2022-10-17T23:21:38.686Z,101180.84
2022-10-17T23:24:07.508Z,101186.91
2022-10-17T23:26:37.203Z,101173.72
2022-10-17T23:29:09.045Z,101135.84
2022-10-17T23:31:37.387Z,100749.22
2022-10-17T23:34:06.315Z,101062.97
2022-10-17T23:36:35.095Z,100655.19
2022-10-17T23:39:04.981Z,101068.31
2022-10-17T23:41:33.040Z,101172.69
2022-10-17T23:44:02.409Z,101166.53
2022-10-17T23:46:30.310Z,101160.41
2022-10-17T23:48:58.312Z,101159.50
2022-10-17T23:51:26.501Z,101157.72
2022-10-17T23:53:54.376Z,101153.38
2022-10-17T23:56:22.236Z,101160.41
2022-10-17T23:58:50.430Z,101155.16
